createdAt,value
2019-05-16T00:00:10.068Z,9.86
2019-05-16T00:01:10.048Z,9.91
2019-05-16T00:02:10.248Z,9.82
2019-05-16T00:03:10.032Z,9.83
2019-05-16T00:04:10.250Z,9.83
2019-05-16T00:05:10.012Z,9.77
2019-05-16T00:06:10.044Z,9.74
2019-05-16T00:07:10.227Z,9.76
2019-05-16T00:08:12.385Z,9.80
2019-05-16T00:09:10.039Z,9.79
2019-05-16T00:10:09.996Z,9.65
2019-05-16T00:11:09.946Z,9.65
2019-05-16T00:12:09.977Z,9.66
2019-05-16T00:13:10.185Z,9.66
2019-05-16T00:14:09.929Z,9.59
2019-05-16T00:15:10.038Z,9.59
2019-05-16T00:16:09.895Z,9.59
2019-05-16T00:17:10.112Z,9.48
2019-05-16T00:18:09.860Z,9.48
2019-05-16T00:19:10.057Z,9.39
2019-05-16T00:20:09.893Z,9.41
2019-05-16T00:21:09.958Z,9.44
2019-05-16T00:22:09.959Z,9.37
2019-05-16T00:23:09.804Z,9.46
2019-05-16T00:24:09.974Z,9.47
2019-05-16T00:25:09.844Z,9.36
2019-05-16T00:26:09.904Z,9.39
2019-05-16T00:27:09.833Z,9.28
2019-05-16T00:28:09.899Z,9.28
2019-05-16T00:29:09.745Z,9.25
2019-05-16T00:30:09.935Z,9.31
2019-05-16T00:31:09.724Z,9.23
2019-05-16T00:32:09.888Z,9.21
2019-05-16T00:33:09.830Z,9.26
2019-05-16T00:34:09.744Z,9.25
2019-05-16T00:35:09.845Z,9.26
2019-05-16T00:36:09.673Z,9.22
2019-05-16T00:37:09.858Z,9.22
2019-05-16T00:38:09.702Z,9.21
2019-05-16T00:39:09.785Z,9.19
2019-05-16T00:40:09.634Z,9.22
2019-05-16T00:41:09.782Z,9.28
2019-05-16T00:42:09.605Z,9.22
2019-05-16T00:43:09.876Z,9.25
2019-05-16T00:44:09.639Z,9.37
2019-05-16T00:45:13.381Z,9.34
2019-05-16T00:46:09.611Z,9.34
2019-05-16T00:47:09.733Z,9.36
2019-05-16T00:48:09.548Z,9.29
2019-05-16T00:49:09.595Z,9.34
2019-05-16T00:50:09.585Z,9.37
2019-05-16T00:51:09.653Z,9.31
2019-05-16T00:52:10.109Z,9.34
2019-05-16T00:53:18.204Z,9.26
2019-05-16T00:54:09.543Z,9.25
2019-05-16T00:55:09.533Z,9.29
2019-05-16T00:56:09.480Z,9.25
2019-05-16T00:57:09.583Z,9.14
2019-05-16T00:58:09.450Z,9.23
2019-05-16T00:59:09.596Z,9.22
2019-05-16T01:00:09.687Z,9.29
2019-05-16T01:01:09.410Z,9.25
2019-05-16T01:02:09.527Z,9.26
2019-05-16T01:03:09.383Z,9.28
2019-05-16T01:04:09.604Z,9.21
2019-05-16T01:05:09.426Z,9.13
2019-05-16T01:06:16.582Z,9.11
2019-05-16T01:07:10.373Z,8.99
2019-05-16T01:08:09.448Z,9.03
2019-05-16T01:09:09.336Z,8.95
2019-05-16T01:10:09.535Z,8.87
2019-05-16T01:11:09.484Z,8.87
2019-05-16T01:12:09.318Z,8.85
2019-05-16T01:13:09.520Z,8.78
2019-05-16T01:14:09.300Z,8.74
2019-05-16T01:15:09.414Z,8.82
2019-05-16T01:16:09.271Z,8.74
2019-05-16T01:17:09.468Z,8.78
2019-05-16T01:18:09.254Z,8.76
2019-05-16T01:19:09.353Z,8.84
2019-05-16T01:20:09.215Z,8.79
2019-05-16T01:21:09.407Z,8.79
2019-05-16T01:22:09.183Z,8.81
2019-05-16T01:23:09.363Z,8.74
2019-05-16T01:24:09.169Z,8.76
2019-05-16T01:25:09.775Z,8.67
2019-05-16T01:26:09.168Z,8.55
2019-05-16T01:27:09.268Z,8.56
2019-05-16T01:28:09.187Z,8.58
2019-05-16T01:29:11.718Z,8.66
2019-05-16T01:30:09.393Z,8.56
2019-05-16T01:31:10.206Z,8.58
2019-05-16T01:32:09.102Z,8.48
2019-05-16T01:33:09.137Z,8.60
2019-05-16T01:34:09.062Z,8.52
2019-05-16T01:35:09.244Z,8.55
2019-05-16T01:36:09.186Z,8.53
2019-05-16T01:37:09.141Z,8.55
2019-05-16T01:38:09.111Z,8.52
2019-05-16T01:39:10.169Z,8.48
2019-05-16T01:40:09.010Z,8.41
2019-05-16T01:41:09.170Z,8.36
2019-05-16T01:42:08.973Z,8.26
2019-05-16T01:43:09.141Z,8.33
2019-05-16T01:44:08.956Z,8.31
2019-05-16T01:45:09.083Z,8.33
2019-05-16T01:46:08.952Z,8.33
2019-05-16T01:47:09.143Z,8.28
2019-05-16T01:48:08.986Z,8.18
2019-05-16T01:49:08.923Z,8.18
2019-05-16T01:50:09.020Z,8.23
2019-05-16T01:51:09.022Z,8.19
2019-05-16T01:52:08.866Z,8.27
2019-05-16T01:53:09.094Z,8.20
2019-05-16T01:54:08.893Z,8.26
2019-05-16T01:55:08.851Z,8.24
2019-05-16T01:56:08.957Z,8.24
2019-05-16T01:57:08.809Z,8.18
2019-05-16T01:58:09.021Z,8.10
2019-05-16T01:59:08.978Z,8.13
2019-05-16T02:00:08.815Z,8.13
2019-05-16T02:01:13.413Z,8.10
2019-05-16T02:02:09.901Z,8.15
2019-05-16T02:03:08.805Z,8.24
2019-05-16T02:04:12.184Z,8.12
2019-05-16T02:05:08.758Z,8.20
2019-05-16T02:06:08.951Z,8.27
2019-05-16T02:07:08.825Z,8.28
2019-05-16T02:08:09.059Z,8.27
2019-05-16T02:09:11.553Z,8.24
2019-05-16T02:10:08.782Z,8.33
2019-05-16T02:11:08.685Z,8.31
2019-05-16T02:12:10.811Z,8.30
2019-05-16T02:13:08.755Z,8.33
2019-05-16T02:14:09.491Z,8.33
2019-05-16T02:15:08.786Z,8.33
2019-05-16T02:16:08.633Z,8.37
2019-05-16T02:17:11.254Z,8.36
2019-05-16T02:18:08.594Z,8.48
2019-05-16T02:19:08.767Z,8.45
2019-05-16T02:20:08.949Z,8.45
2019-05-16T02:21:09.711Z,8.48
2019-05-16T02:22:09.051Z,8.46
2019-05-16T02:23:08.563Z,8.52
2019-05-16T02:24:08.973Z,8.61
2019-05-16T02:25:08.574Z,8.53
2019-05-16T02:26:08.697Z,8.60
2019-05-16T02:27:09.506Z,8.55
2019-05-16T02:28:08.654Z,8.52
2019-05-16T02:29:13.261Z,8.55
2019-05-16T02:30:12.416Z,8.45
2019-05-16T02:31:14.853Z,8.46
2019-05-16T02:32:11.552Z,8.51
2019-05-16T02:33:11.406Z,8.49
2019-05-16T02:34:11.535Z,8.42
2019-05-16T02:35:11.517Z,8.45
2019-05-16T02:36:11.024Z,8.45
2019-05-16T02:37:20.166Z,8.46
2019-05-16T02:38:11.369Z,8.46
2019-05-16T02:39:10.940Z,8.46
2019-05-16T02:40:11.628Z,8.45
2019-05-16T02:41:10.601Z,8.44
2019-05-16T02:42:11.535Z,8.46
2019-05-16T02:43:08.356Z,8.44
2019-05-16T02:44:11.812Z,8.51
2019-05-16T02:45:10.949Z,8.55
2019-05-16T02:46:11.647Z,8.56
2019-05-16T02:47:10.814Z,8.52
2019-05-16T02:48:10.944Z,8.51
2019-05-16T02:49:11.354Z,8.56
2019-05-16T02:50:11.779Z,8.58
2019-05-16T02:51:10.981Z,8.63
2019-05-16T02:52:10.834Z,8.63
2019-05-16T02:53:08.313Z,8.58
2019-05-16T02:54:10.954Z,8.63
2019-05-16T02:55:11.320Z,8.58
2019-05-16T02:56:11.854Z,8.58
2019-05-16T02:57:11.280Z,8.58
2019-05-16T02:58:11.481Z,8.58
2019-05-16T02:59:11.668Z,8.55
2019-05-16T03:00:11.779Z,8.60
2019-05-16T03:01:10.815Z,8.60
2019-05-16T03:02:11.162Z,8.55
2019-05-16T03:03:11.624Z,8.55
2019-05-16T03:04:11.055Z,8.52
2019-05-16T03:05:11.577Z,8.53
2019-05-16T03:06:11.163Z,8.58
2019-05-16T03:07:11.437Z,8.55
2019-05-16T03:08:11.990Z,8.52
2019-05-16T03:09:11.214Z,8.55
2019-05-16T03:10:10.913Z,8.53
2019-05-16T03:11:11.614Z,8.46
2019-05-16T03:12:10.764Z,8.49
2019-05-16T03:13:10.897Z,8.45
2019-05-16T03:14:11.002Z,8.45
2019-05-16T03:15:10.733Z,8.48
2019-05-16T03:16:11.846Z,8.46
2019-05-16T03:17:07.993Z,8.46
2019-05-16T03:18:11.225Z,8.45
2019-05-16T03:19:11.158Z,8.44
2019-05-16T03:20:10.855Z,8.45
2019-05-16T03:21:11.060Z,8.33
2019-05-16T03:22:07.947Z,8.36
2019-05-16T03:23:11.024Z,8.33
2019-05-16T03:24:11.007Z,8.33
2019-05-16T03:25:11.096Z,8.38
2019-05-16T03:26:07.884Z,8.34
2019-05-16T03:27:10.624Z,8.34
2019-05-16T03:28:10.888Z,8.33
2019-05-16T03:29:11.079Z,8.33
2019-05-16T03:30:07.846Z,8.31
2019-05-16T03:31:07.967Z,8.28
2019-05-16T03:32:13.272Z,8.30
2019-05-16T03:33:14.298Z,8.20
2019-05-16T03:34:14.928Z,8.24
2019-05-16T03:35:14.452Z,8.28
2019-05-16T03:36:14.316Z,8.23
2019-05-16T03:37:13.585Z,8.26
2019-05-16T03:38:11.816Z,8.26
2019-05-16T03:39:10.504Z,8.28
2019-05-16T03:40:10.844Z,8.33
2019-05-16T03:41:07.729Z,8.31
2019-05-16T03:42:07.820Z,8.31
2019-05-16T03:43:07.697Z,8.33
2019-05-16T03:44:07.690Z,8.24
2019-05-16T03:45:10.535Z,8.26
2019-05-16T03:46:11.506Z,8.28
2019-05-16T03:47:11.015Z,8.28
2019-05-16T03:48:07.651Z,8.20
2019-05-16T03:49:11.041Z,8.20
2019-05-16T03:50:10.842Z,8.23
2019-05-16T03:51:11.036Z,8.26
2019-05-16T03:52:07.610Z,8.18
2019-05-16T03:53:11.351Z,8.19
2019-05-16T03:54:07.594Z,8.20
2019-05-16T03:55:10.721Z,8.23
2019-05-16T03:56:10.826Z,8.31
2019-05-16T03:57:07.562Z,8.26
2019-05-16T03:58:11.327Z,8.27
2019-05-16T03:59:10.719Z,8.30
2019-05-16T04:00:07.563Z,8.26
2019-05-16T04:01:10.792Z,8.23
2019-05-16T04:02:10.811Z,8.28
2019-05-16T04:03:07.543Z,8.27
2019-05-16T04:04:07.533Z,8.33
2019-05-16T04:05:10.877Z,8.31
2019-05-16T04:06:07.527Z,8.15
2019-05-16T04:07:10.805Z,8.19
2019-05-16T04:08:14.727Z,8.15
2019-05-16T04:09:11.868Z,8.10
2019-05-16T04:10:07.452Z,8.15
2019-05-16T04:11:07.467Z,8.10
2019-05-16T04:12:10.602Z,8.10
2019-05-16T04:13:07.379Z,8.10
2019-05-16T04:14:10.647Z,8.12
2019-05-16T04:15:07.370Z,8.18
2019-05-16T04:16:07.393Z,8.10
2019-05-16T04:17:10.766Z,8.08
2019-05-16T04:18:07.334Z,8.09
2019-05-16T04:19:07.409Z,8.09
2019-05-16T04:20:07.320Z,8.01
2019-05-16T04:21:07.327Z,8.03
2019-05-16T04:22:10.261Z,8.03
2019-05-16T04:23:07.340Z,7.98
2019-05-16T04:24:07.262Z,7.93
2019-05-16T04:25:07.349Z,7.95
2019-05-16T04:26:07.279Z,7.97
2019-05-16T04:27:07.336Z,7.94
2019-05-16T04:28:07.284Z,7.94
2019-05-16T04:29:07.208Z,7.94
2019-05-16T04:30:07.280Z,7.91
2019-05-16T04:31:07.207Z,7.90
2019-05-16T04:32:10.864Z,7.91
2019-05-16T04:33:07.205Z,7.93
2019-05-16T04:34:07.267Z,7.97
2019-05-16T04:35:07.150Z,7.95
2019-05-16T04:36:10.342Z,8.00
2019-05-16T04:37:07.131Z,8.06
2019-05-16T04:38:07.203Z,7.91
2019-05-16T04:39:07.159Z,7.97
2019-05-16T04:40:07.164Z,7.95
2019-05-16T04:41:07.082Z,7.94
2019-05-16T04:42:07.162Z,7.97
2019-05-16T04:43:07.067Z,8.00
2019-05-16T04:44:07.147Z,7.98
2019-05-16T04:45:07.040Z,8.01
2019-05-16T04:46:07.102Z,7.98
2019-05-16T04:47:07.044Z,8.01
2019-05-16T04:48:07.122Z,8.08
2019-05-16T04:49:07.988Z,8.12
2019-05-16T04:50:06.989Z,8.16
2019-05-16T04:51:10.559Z,8.23
2019-05-16T04:52:06.981Z,8.28
2019-05-16T04:53:07.089Z,8.26
2019-05-16T04:54:07.335Z,8.31
2019-05-16T04:55:06.932Z,8.15
2019-05-16T04:56:06.968Z,8.20
2019-05-16T04:57:07.033Z,8.18
2019-05-16T04:58:06.898Z,8.24
2019-05-16T04:59:07.051Z,8.31
2019-05-16T05:00:06.894Z,8.28
2019-05-16T05:01:06.889Z,8.33
2019-05-16T05:02:06.967Z,8.37
2019-05-16T05:03:06.876Z,8.41
2019-05-16T05:04:11.750Z,8.31
2019-05-16T05:05:07.873Z,8.31
2019-05-16T05:06:06.846Z,8.48
2019-05-16T05:07:06.859Z,8.34
2019-05-16T05:08:06.865Z,8.44
2019-05-16T05:09:06.786Z,8.37
2019-05-16T05:10:06.840Z,8.44
2019-05-16T05:11:06.839Z,8.45
2019-05-16T05:12:06.769Z,8.42
2019-05-16T05:13:06.879Z,8.51
2019-05-16T05:14:06.749Z,8.51
2019-05-16T05:15:06.774Z,8.44
2019-05-16T05:16:06.759Z,8.42
2019-05-16T05:17:06.726Z,8.37
2019-05-16T05:18:06.703Z,8.37
2019-05-16T05:19:07.736Z,8.44
2019-05-16T05:20:06.677Z,8.34
2019-05-16T05:21:06.778Z,8.31
2019-05-16T05:22:06.682Z,8.30
2019-05-16T05:23:06.723Z,8.42
2019-05-16T05:24:06.654Z,8.31
2019-05-16T05:25:06.693Z,8.33
2019-05-16T05:26:06.601Z,8.42
2019-05-16T05:27:06.723Z,8.44
2019-05-16T05:28:06.660Z,8.56
2019-05-16T05:29:06.577Z,8.60
2019-05-16T05:30:06.673Z,8.63
2019-05-16T05:31:06.568Z,8.53
2019-05-16T05:32:06.658Z,8.49
2019-05-16T05:33:06.539Z,8.56
2019-05-16T05:34:06.591Z,8.66
2019-05-16T05:35:06.499Z,8.69
2019-05-16T05:36:06.624Z,8.66
2019-05-16T05:37:06.530Z,8.71
2019-05-16T05:38:06.523Z,8.85
2019-05-16T05:39:11.970Z,8.81
2019-05-16T05:40:07.455Z,8.82
2019-05-16T05:41:06.543Z,8.85
2019-05-16T05:42:06.427Z,8.82
2019-05-16T05:43:06.598Z,8.88
2019-05-16T05:44:06.480Z,8.92
2019-05-16T05:45:07.490Z,8.95
2019-05-16T05:46:06.386Z,8.92
2019-05-16T05:47:06.479Z,8.87
2019-05-16T05:48:06.417Z,8.82
2019-05-16T05:49:06.404Z,8.81
2019-05-16T05:50:06.350Z,8.97
2019-05-16T05:51:06.477Z,8.92
2019-05-16T05:52:06.326Z,9.02
2019-05-16T05:53:06.416Z,9.11
2019-05-16T05:54:06.337Z,9.11
2019-05-16T05:55:06.294Z,9.16
2019-05-16T05:56:06.340Z,9.16
2019-05-16T05:57:06.367Z,9.14
2019-05-16T05:58:06.305Z,9.14
2019-05-16T05:59:06.361Z,9.10
2019-05-16T06:00:06.260Z,9.28
2019-05-16T06:01:06.230Z,9.37
2019-05-16T06:02:06.336Z,9.43
2019-05-16T06:03:06.230Z,9.47
2019-05-16T06:04:07.205Z,9.40
2019-05-16T06:05:06.200Z,9.47
2019-05-16T06:06:06.180Z,9.41
2019-05-16T06:07:06.210Z,9.56
2019-05-16T06:08:06.225Z,9.58
2019-05-16T06:09:06.215Z,9.68
2019-05-16T06:10:06.225Z,9.66
2019-05-16T06:11:06.124Z,9.66
2019-05-16T06:12:07.581Z,9.68
2019-05-16T06:13:06.168Z,9.69
2019-05-16T06:14:06.143Z,9.77
2019-05-16T06:15:09.019Z,9.66
2019-05-16T06:16:07.118Z,9.61
2019-05-16T06:17:06.073Z,9.64
2019-05-16T06:18:06.069Z,9.74
2019-05-16T06:19:06.117Z,9.87
2019-05-16T06:20:06.054Z,9.95
2019-05-16T06:21:06.173Z,9.98
2019-05-16T06:22:05.995Z,10.01
2019-05-16T06:23:06.020Z,10.07
2019-05-16T06:24:06.024Z,10.01
2019-05-16T06:25:06.013Z,10.01
2019-05-16T06:26:06.111Z,10.10
2019-05-16T06:27:05.957Z,10.16
2019-05-16T06:28:05.930Z,10.19
2019-05-16T06:29:05.984Z,10.17
2019-05-16T06:30:05.990Z,10.16
2019-05-16T06:31:05.914Z,10.12
2019-05-16T06:32:05.999Z,10.19
2019-05-16T06:33:05.924Z,10.07
2019-05-16T06:34:08.950Z,10.09
2019-05-16T06:35:06.869Z,10.17
2019-05-16T06:36:05.994Z,10.30
2019-05-16T06:37:05.845Z,10.23
2019-05-16T06:38:05.925Z,10.33
2019-05-16T06:39:05.952Z,10.41
2019-05-16T06:40:05.865Z,10.38
2019-05-16T06:41:05.916Z,10.37
2019-05-16T06:42:05.806Z,10.31
2019-05-16T06:43:05.872Z,10.40
2019-05-16T06:44:05.773Z,10.46
2019-05-16T06:45:05.805Z,10.56
2019-05-16T06:46:06.872Z,10.63
2019-05-16T06:47:16.943Z,10.69
2019-05-16T06:48:06.768Z,10.86
2019-05-16T06:49:05.794Z,11.07
2019-05-16T06:50:05.854Z,10.96
2019-05-16T06:51:05.699Z,10.92
2019-05-16T06:52:06.747Z,10.78
2019-05-16T06:53:05.699Z,10.60
2019-05-16T06:54:06.806Z,10.49
2019-05-16T06:55:05.666Z,10.48
2019-05-16T06:56:05.810Z,10.59
2019-05-16T06:57:05.682Z,10.61
2019-05-16T06:58:05.757Z,10.59
2019-05-16T06:59:05.642Z,10.49
2019-05-16T07:00:05.715Z,10.61
2019-05-16T07:01:05.657Z,10.59
2019-05-16T07:02:05.586Z,10.60
2019-05-16T07:03:05.696Z,10.67
2019-05-16T07:04:05.609Z,10.72
2019-05-16T07:05:05.590Z,10.71
2019-05-16T07:06:05.548Z,10.54
2019-05-16T07:07:05.621Z,10.46
2019-05-16T07:08:05.527Z,10.33
2019-05-16T07:09:05.582Z,10.42
2019-05-16T07:10:05.513Z,10.51
2019-05-16T07:11:05.530Z,10.54
2019-05-16T07:12:06.565Z,10.51
2019-05-16T07:13:05.477Z,10.72
2019-05-16T07:14:05.615Z,10.76
2019-05-16T07:15:05.471Z,10.76
2019-05-16T07:16:05.458Z,10.92
2019-05-16T07:17:05.434Z,10.87
2019-05-16T07:18:05.479Z,11.07
2019-05-16T07:19:05.499Z,11.10
2019-05-16T07:20:05.510Z,11.26
2019-05-16T07:21:05.389Z,11.25
2019-05-16T07:22:05.398Z,11.22
2019-05-16T07:23:05.370Z,11.19
2019-05-16T07:24:05.474Z,11.17
2019-05-16T07:25:05.400Z,11.22
2019-05-16T07:26:05.446Z,11.25
2019-05-16T07:27:05.320Z,11.23
2019-05-16T07:28:05.334Z,11.18
2019-05-16T07:29:05.339Z,11.05
2019-05-16T07:30:05.418Z,11.00
2019-05-16T07:31:15.010Z,11.07
2019-05-16T07:32:06.280Z,10.96
2019-05-16T07:33:05.372Z,10.94
2019-05-16T07:34:05.265Z,11.02
2019-05-16T07:35:05.366Z,10.94
2019-05-16T07:36:05.227Z,11.07
2019-05-16T07:37:05.351Z,11.10
2019-05-16T07:38:05.211Z,11.02
2019-05-16T07:39:05.237Z,11.00
2019-05-16T07:40:16.156Z,11.00
2019-05-16T07:41:06.180Z,10.94
2019-05-16T07:42:05.245Z,10.92
2019-05-16T07:43:05.171Z,10.89
2019-05-16T07:44:05.243Z,10.93
2019-05-16T07:45:05.176Z,11.15
2019-05-16T07:46:05.229Z,11.27
2019-05-16T07:47:05.120Z,11.25
2019-05-16T07:48:05.196Z,11.32
2019-05-16T07:49:05.121Z,11.33
2019-05-16T07:50:05.624Z,11.35
2019-05-16T07:51:05.121Z,11.17
2019-05-16T07:52:05.114Z,11.19
2019-05-16T07:53:05.057Z,11.22
2019-05-16T07:54:05.103Z,11.29
2019-05-16T07:55:05.054Z,11.44
2019-05-16T07:56:05.087Z,11.50
2019-05-16T07:57:16.174Z,11.59
2019-05-16T07:58:06.007Z,11.60
2019-05-16T07:59:05.113Z,11.50
2019-05-16T08:00:04.983Z,11.40
2019-05-16T08:01:09.166Z,11.41
2019-05-16T08:02:05.995Z,11.41
2019-05-16T08:03:05.979Z,11.50
2019-05-16T08:04:04.934Z,11.47
2019-05-16T08:05:04.974Z,11.40
2019-05-16T08:06:04.976Z,11.55
2019-05-16T08:07:05.818Z,11.54
2019-05-16T08:08:04.943Z,11.54
2019-05-16T08:09:07.636Z,11.57
2019-05-16T08:10:04.896Z,11.63
2019-05-16T08:11:04.915Z,11.73
2019-05-16T08:12:05.972Z,11.83
2019-05-16T08:13:04.841Z,11.84
2019-05-16T08:14:04.994Z,11.90
2019-05-16T08:15:04.837Z,11.88
2019-05-16T08:16:04.854Z,11.94
2019-05-16T08:17:04.844Z,11.86
2019-05-16T08:18:04.924Z,12.06
2019-05-16T08:19:04.774Z,12.13
2019-05-16T08:20:04.833Z,12.39
2019-05-16T08:21:04.767Z,12.55
2019-05-16T08:22:04.787Z,12.68
2019-05-16T08:23:04.733Z,12.80
2019-05-16T08:24:07.654Z,12.76
2019-05-16T08:25:04.788Z,12.72
2019-05-16T08:26:04.814Z,12.75
2019-05-16T08:27:04.708Z,12.82
2019-05-16T08:28:04.733Z,12.78
2019-05-16T08:29:04.683Z,12.87
2019-05-16T08:30:04.760Z,13.05
2019-05-16T08:31:04.698Z,13.19
2019-05-16T08:32:04.652Z,13.28
2019-05-16T08:33:04.626Z,13.39
2019-05-16T08:34:04.668Z,13.38
2019-05-16T08:35:04.756Z,13.27
2019-05-16T08:36:08.132Z,13.31
2019-05-16T08:37:05.612Z,13.37
2019-05-16T08:38:04.611Z,13.31
2019-05-16T08:39:04.597Z,13.15
2019-05-16T08:40:04.897Z,13.33
2019-05-16T08:42:08.422Z,13.62
2019-05-16T08:43:05.520Z,13.68
2019-05-16T08:44:04.549Z,13.57
2019-05-16T08:45:04.538Z,13.38
2019-05-16T08:46:04.611Z,13.11
2019-05-16T08:47:06.231Z,12.80
2019-05-16T08:48:04.578Z,12.83
2019-05-16T08:49:04.511Z,12.72
2019-05-16T08:50:04.478Z,12.57
2019-05-16T08:51:04.537Z,12.70
2019-05-16T08:52:05.568Z,12.73
2019-05-16T08:53:04.422Z,12.80
2019-05-16T08:54:04.496Z,12.75
2019-05-16T08:55:04.433Z,12.68
2019-05-16T08:56:04.390Z,12.47
2019-05-16T08:57:24.347Z,12.36
2019-05-16T08:58:05.363Z,12.49
2019-05-16T08:59:04.563Z,12.68
2019-05-16T09:00:04.349Z,12.82
2019-05-16T09:01:04.383Z,13.00
2019-05-16T09:02:04.361Z,13.19
2019-05-16T09:03:04.312Z,13.35
2019-05-16T09:04:04.416Z,13.42
2019-05-16T09:05:05.546Z,13.50
2019-05-16T09:06:05.281Z,13.37
2019-05-16T09:07:04.266Z,13.31
2019-05-16T09:08:04.374Z,13.22
2019-05-16T09:09:12.372Z,13.25
2019-05-16T09:10:10.285Z,13.16
2019-05-16T09:10:11.185Z,13.50
2019-05-16T09:12:07.721Z,13.16
2019-05-16T09:13:06.850Z,12.90
2019-05-16T09:14:04.245Z,13.00
2019-05-16T09:15:04.184Z,13.08
2019-05-16T09:16:04.296Z,13.01
2019-05-16T09:17:04.169Z,13.15
2019-05-16T09:18:07.256Z,13.16
2019-05-16T09:18:36.428Z,13.05
2019-05-16T09:19:04.211Z,13.18
2019-05-16T09:20:04.147Z,13.33
2019-05-16T09:21:07.146Z,13.37
2019-05-16T09:22:07.241Z,13.18
2019-05-16T09:23:04.123Z,12.82
2019-05-16T09:24:06.626Z,12.72
2019-05-16T09:25:04.157Z,12.68
2019-05-16T09:26:07.056Z,12.64
2019-05-16T09:27:10.746Z,12.47
2019-05-16T09:28:07.344Z,12.43
2019-05-16T09:29:04.036Z,12.40
2019-05-16T09:30:04.115Z,12.40
2019-05-16T09:31:04.019Z,12.42
2019-05-16T09:32:12.804Z,12.46
2019-05-16T09:33:07.078Z,12.46
2019-05-16T09:34:03.984Z,12.47
2019-05-16T09:35:03.983Z,12.49
2019-05-16T09:36:04.041Z,12.53
2019-05-16T09:37:04.017Z,12.36
2019-05-16T09:38:03.992Z,12.36
2019-05-16T09:39:03.931Z,12.42
2019-05-16T09:40:06.292Z,12.35
2019-05-16T09:41:04.082Z,12.21
2019-05-16T09:42:03.902Z,12.21
2019-05-16T09:43:03.927Z,12.25
2019-05-16T09:44:03.892Z,12.28
2019-05-16T09:45:03.879Z,12.22
2019-05-16T09:46:04.293Z,12.39
2019-05-16T09:47:03.852Z,12.32
2019-05-16T09:48:03.947Z,12.24
2019-05-16T09:49:16.627Z,12.21
2019-05-16T09:50:06.867Z,12.20
2019-05-16T09:51:06.460Z,12.20
2019-05-16T09:52:03.810Z,12.39
2019-05-16T09:53:03.892Z,12.47
2019-05-16T09:54:03.839Z,12.73
2019-05-16T09:55:03.812Z,12.70
2019-05-16T09:56:03.818Z,12.82
2019-05-16T09:57:03.757Z,12.80
2019-05-16T09:58:03.886Z,13.09
2019-05-16T09:59:03.718Z,13.33
2019-05-16T10:00:06.787Z,13.42
2019-05-16T10:01:03.702Z,13.56
2019-05-16T10:02:03.862Z,13.57
2019-05-16T10:03:03.689Z,13.38
2019-05-16T10:04:06.522Z,13.20
2019-05-16T10:05:03.675Z,13.13
2019-05-16T10:06:03.796Z,13.04
2019-05-16T10:07:03.671Z,13.23
2019-05-16T10:08:03.628Z,13.31
2019-05-16T10:09:03.754Z,13.30
2019-05-16T10:10:03.609Z,12.90
2019-05-16T10:11:06.817Z,12.78
2019-05-16T10:12:11.384Z,13.04
2019-05-16T10:13:06.661Z,12.85
2019-05-16T10:14:10.243Z,13.03
2019-05-16T10:15:03.552Z,13.05
2019-05-16T10:16:03.766Z,12.93
2019-05-16T10:17:03.585Z,12.86
2019-05-16T10:18:03.516Z,12.91
2019-05-16T10:19:03.561Z,12.91
2019-05-16T10:20:07.622Z,12.82
2019-05-16T10:21:03.503Z,12.80
2019-05-16T10:22:07.142Z,12.87
2019-05-16T10:23:03.465Z,13.12
2019-05-16T10:24:03.642Z,13.19
2019-05-16T10:25:03.446Z,13.09
2019-05-16T10:26:03.562Z,13.23
2019-05-16T10:27:03.449Z,13.28
2019-05-16T10:28:03.575Z,13.37
2019-05-16T10:29:03.434Z,13.18
2019-05-16T10:30:03.485Z,12.82
2019-05-16T10:31:03.376Z,12.65
2019-05-16T10:32:03.498Z,12.75
2019-05-16T10:33:03.400Z,12.76
2019-05-16T10:34:03.426Z,12.79
2019-05-16T10:35:03.336Z,12.86
2019-05-16T10:36:03.436Z,12.90
2019-05-16T10:37:03.318Z,12.85
2019-05-16T10:38:03.510Z,12.82
2019-05-16T10:39:03.313Z,12.85
2019-05-16T10:40:03.282Z,12.83
2019-05-16T10:41:03.417Z,12.87
2019-05-16T10:42:03.265Z,12.80
2019-05-16T10:43:03.371Z,12.85
2019-05-16T10:44:03.252Z,12.73
2019-05-16T10:45:03.470Z,12.75
2019-05-16T10:46:03.234Z,12.70
2019-05-16T10:47:03.288Z,12.65
2019-05-16T10:48:03.197Z,12.64
2019-05-16T10:49:03.312Z,12.45
2019-05-16T10:50:03.214Z,12.47
2019-05-16T10:51:03.177Z,12.46
2019-05-16T10:52:03.169Z,12.32
2019-05-16T10:53:25.680Z,12.24
2019-05-16T10:54:13.213Z,12.17
2019-05-16T10:55:04.224Z,12.24
2019-05-16T10:56:03.171Z,12.21
2019-05-16T10:57:03.239Z,12.24
2019-05-16T10:58:03.205Z,12.29
2019-05-16T10:59:37.915Z,12.32
2019-05-16T11:00:12.405Z,12.35
2019-05-16T11:01:19.520Z,12.39
2019-05-16T11:02:04.116Z,12.21
2019-05-16T11:03:03.254Z,12.00
2019-05-16T11:04:03.105Z,11.94
2019-05-16T11:05:22.448Z,11.99
2019-05-16T11:06:08.397Z,12.02
2019-05-16T11:07:04.032Z,11.99
2019-05-16T11:08:03.587Z,11.97
2019-05-16T11:09:02.976Z,11.94
2019-05-16T11:10:03.797Z,11.97
2019-05-16T11:11:03.022Z,11.84
2019-05-16T11:12:03.094Z,11.90
2019-05-16T11:13:03.792Z,11.70
2019-05-16T11:14:02.916Z,11.80
2019-05-16T11:15:03.087Z,11.90
2019-05-16T11:16:02.933Z,11.88
2019-05-16T11:17:03.030Z,11.84
2019-05-16T11:18:02.947Z,11.88
2019-05-16T11:19:14.359Z,11.94
2019-05-16T11:20:03.873Z,11.88
2019-05-16T11:21:03.007Z,11.73
2019-05-16T11:22:02.860Z,11.68
2019-05-16T11:23:03.035Z,11.70
2019-05-16T11:24:02.832Z,11.77
2019-05-16T11:25:16.396Z,11.90
2019-05-16T11:26:03.840Z,11.73
2019-05-16T11:27:02.961Z,11.81
2019-05-16T11:28:02.771Z,11.99
2019-05-16T11:29:03.952Z,12.13
2019-05-16T11:30:02.763Z,12.20
2019-05-16T11:31:03.980Z,12.13
2019-05-16T11:32:02.771Z,12.13
2019-05-16T11:33:02.848Z,12.20
2019-05-16T11:34:02.740Z,12.21
2019-05-16T11:35:02.701Z,12.31
2019-05-16T11:36:02.705Z,11.81
2019-05-16T11:37:02.823Z,11.63
2019-05-16T11:38:02.672Z,11.73
2019-05-16T11:39:03.744Z,11.72
2019-05-16T11:40:02.658Z,11.77
2019-05-16T11:41:02.636Z,11.97
2019-05-16T11:42:02.613Z,12.15
2019-05-16T11:43:10.647Z,12.25
2019-05-16T11:44:03.648Z,12.35
2019-05-16T11:45:08.645Z,12.53
2019-05-16T11:46:03.637Z,12.75
2019-05-16T11:47:02.582Z,12.73
2019-05-16T11:48:02.773Z,12.46
2019-05-16T11:49:02.583Z,12.36
2019-05-16T11:50:03.624Z,12.31
2019-05-16T11:51:02.583Z,12.35
2019-05-16T11:52:02.590Z,12.27
2019-05-16T11:53:02.607Z,12.37
2019-05-16T11:54:02.496Z,12.47
2019-05-16T11:55:02.688Z,12.58
2019-05-16T11:56:02.494Z,12.61
2019-05-16T11:57:02.460Z,12.70
2019-05-16T11:58:02.513Z,12.65
2019-05-16T11:59:02.563Z,12.42
2019-05-16T12:00:02.462Z,12.17
2019-05-16T12:01:02.554Z,11.97
2019-05-16T12:02:02.429Z,11.87
2019-05-16T12:03:02.416Z,11.77
2019-05-16T12:04:02.477Z,11.75
2019-05-16T12:05:02.418Z,11.97
2019-05-16T12:06:02.562Z,12.04
2019-05-16T12:07:02.397Z,12.04
2019-05-16T12:08:02.424Z,12.31
2019-05-16T12:09:02.338Z,12.04
2019-05-16T12:10:02.436Z,11.81
2019-05-16T12:11:02.328Z,11.88
2019-05-16T12:12:04.074Z,12.00
2019-05-16T12:13:02.341Z,12.36
2019-05-16T12:14:02.460Z,12.60
2019-05-16T12:15:02.297Z,12.40
2019-05-16T12:16:02.452Z,12.28
2019-05-16T12:17:02.362Z,12.28
2019-05-16T12:18:05.190Z,12.28
2019-05-16T12:19:03.237Z,12.39
2019-05-16T12:20:02.378Z,12.42
2019-05-16T12:21:02.280Z,12.49
2019-05-16T12:22:02.389Z,12.58
2019-05-16T12:23:02.205Z,12.46
2019-05-16T12:24:02.312Z,12.47
2019-05-16T12:25:02.177Z,12.47
2019-05-16T12:26:03.345Z,12.39
2019-05-16T12:27:02.166Z,12.35
2019-05-16T12:28:02.294Z,12.40
2019-05-16T12:29:02.143Z,12.46
2019-05-16T12:30:02.399Z,12.46
2019-05-16T12:31:02.206Z,12.61
2019-05-16T12:32:03.094Z,12.58
2019-05-16T12:33:03.208Z,12.68
2019-05-16T12:34:02.120Z,12.70
2019-05-16T12:35:03.183Z,12.68
2019-05-16T12:36:02.054Z,12.62
2019-05-16T12:37:03.093Z,12.60
2019-05-16T12:38:02.049Z,12.60
2019-05-16T12:39:02.194Z,12.55
2019-05-16T12:40:02.141Z,12.60
2019-05-16T12:41:02.006Z,12.62
2019-05-16T12:42:02.036Z,12.70
2019-05-16T12:43:02.141Z,12.72
2019-05-16T12:44:01.987Z,12.68
2019-05-16T12:45:02.036Z,12.65
2019-05-16T12:46:02.055Z,12.47
2019-05-16T12:47:02.066Z,12.28
2019-05-16T12:48:01.974Z,12.20
2019-05-16T12:49:02.067Z,12.27
2019-05-16T12:50:01.930Z,12.29
2019-05-16T12:51:02.016Z,12.40
2019-05-16T12:52:02.036Z,12.35
2019-05-16T12:53:01.938Z,12.29
2019-05-16T12:54:02.006Z,12.21
2019-05-16T12:55:02.252Z,12.40
2019-05-16T12:56:01.964Z,12.35
2019-05-16T12:57:01.845Z,12.22
2019-05-16T12:58:12.555Z,11.88
2019-05-16T12:59:02.856Z,11.87
2019-05-16T13:00:01.984Z,11.72
2019-05-16T13:01:01.810Z,11.72
2019-05-16T13:02:01.933Z,11.60
2019-05-16T13:03:01.779Z,11.70
2019-05-16T13:04:01.862Z,11.77
2019-05-16T13:05:01.744Z,11.80